createdAt,value
2018-10-09T00:00:37.551Z,1013.54
2018-10-09T00:01:37.487Z,1013.60
2018-10-09T00:02:37.481Z,1013.56
2018-10-09T00:03:37.455Z,1013.53
2018-10-09T00:04:37.449Z,1013.55
2018-10-09T00:05:37.436Z,1013.54
2018-10-09T00:06:37.426Z,1013.55
2018-10-09T00:07:37.433Z,1013.53
2018-10-09T00:08:37.437Z,1013.52
2018-10-09T00:09:37.390Z,1013.56
2018-10-09T00:10:37.377Z,1013.51
2018-10-09T00:11:37.374Z,1013.51
2018-10-09T00:12:37.366Z,1013.51
2018-10-09T00:13:37.345Z,1013.49
2018-10-09T00:14:37.333Z,1013.47
2018-10-09T00:15:37.326Z,1013.48
2018-10-09T00:16:37.318Z,1013.49
2018-10-09T00:17:37.324Z,1013.49
2018-10-09T00:18:37.286Z,1013.50
2018-10-09T00:19:37.282Z,1013.49
2018-10-09T00:20:37.293Z,1013.50
2018-10-09T00:21:37.263Z,1013.45
2018-10-09T00:22:37.242Z,1013.43
2018-10-09T00:23:37.254Z,1013.43
2018-10-09T00:24:37.220Z,1013.40
2018-10-09T00:25:37.208Z,1013.38
2018-10-09T00:26:37.211Z,1013.36
2018-10-09T00:27:37.185Z,1013.37
2018-10-09T00:28:37.192Z,1013.34
2018-10-09T00:29:37.164Z,1013.35
2018-10-09T00:30:37.153Z,1013.30
2018-10-09T00:31:37.146Z,1013.28
2018-10-09T00:32:37.133Z,1013.28
2018-10-09T00:33:37.160Z,1013.23
2018-10-09T00:34:37.155Z,1013.23
2018-10-09T00:35:37.098Z,1013.22
2018-10-09T00:36:37.131Z,1013.26
2018-10-09T00:37:37.079Z,1013.27
2018-10-09T00:38:37.100Z,1013.32
2018-10-09T00:39:37.057Z,1013.33
2018-10-09T00:40:37.051Z,1013.38
2018-10-09T00:41:37.028Z,1013.36
2018-10-09T00:42:37.020Z,1013.38
2018-10-09T00:43:37.021Z,1013.35
2018-10-09T00:44:37.003Z,1013.36
2018-10-09T00:45:36.986Z,1013.31
2018-10-09T00:46:36.976Z,1013.30
2018-10-09T00:47:36.961Z,1013.31
2018-10-09T00:48:36.979Z,1013.32
2018-10-09T00:49:36.952Z,1013.25
2018-10-09T00:50:36.929Z,1013.27
2018-10-09T00:51:36.917Z,1013.24
2018-10-09T00:52:36.906Z,1013.24
2018-10-09T00:53:36.940Z,1013.26
2018-10-09T00:54:36.885Z,1013.30
2018-10-09T00:55:36.875Z,1013.32
2018-10-09T00:56:36.881Z,1013.32
2018-10-09T00:57:36.851Z,1013.35
2018-10-09T00:58:36.857Z,1013.30
2018-10-09T00:59:36.831Z,1013.35
2018-10-09T01:00:36.825Z,1013.34
2018-10-09T01:01:36.826Z,1013.38
2018-10-09T01:02:36.796Z,1013.38
2018-10-09T01:03:36.816Z,1013.41
2018-10-09T01:04:36.800Z,1013.36
2018-10-09T01:05:36.761Z,1013.40
2018-10-09T01:06:36.751Z,1013.36
2018-10-09T01:07:36.771Z,1013.37
2018-10-09T01:08:36.740Z,1013.35
2018-10-09T01:09:36.723Z,1013.36
2018-10-09T01:10:36.724Z,1013.35
2018-10-09T01:11:36.696Z,1013.41
2018-10-09T01:12:36.688Z,1013.40
2018-10-09T01:13:36.686Z,1013.48
2018-10-09T01:14:36.662Z,1013.47
2018-10-09T01:15:36.666Z,1013.52
2018-10-09T01:16:36.640Z,1013.51
2018-10-09T01:17:36.633Z,1013.50
2018-10-09T01:18:36.646Z,1013.45
2018-10-09T01:19:36.605Z,1013.43
2018-10-09T01:20:36.596Z,1013.46
2018-10-09T01:21:36.609Z,1013.44
2018-10-09T01:22:36.573Z,1013.47
2018-10-09T01:23:36.561Z,1013.48
2018-10-09T01:24:36.619Z,1013.46
2018-10-09T01:25:36.577Z,1013.47
2018-10-09T01:26:36.527Z,1013.51
2018-10-09T01:27:36.517Z,1013.45
2018-10-09T01:28:36.509Z,1013.47
2018-10-09T01:29:36.517Z,1013.48
2018-10-09T01:30:36.484Z,1013.49
2018-10-09T01:31:36.489Z,1013.45
2018-10-09T01:32:36.461Z,1013.44
2018-10-09T01:33:36.452Z,1013.45
2018-10-09T01:34:36.471Z,1013.48
2018-10-09T01:35:36.432Z,1013.46
2018-10-09T01:36:36.418Z,1013.49
2018-10-09T01:37:36.426Z,1013.46
2018-10-09T01:38:36.398Z,1013.48
2018-10-09T01:39:36.395Z,1013.43
2018-10-09T01:40:36.385Z,1013.45
2018-10-09T01:41:36.361Z,1013.44
2018-10-09T01:42:36.359Z,1013.48
2018-10-09T01:43:36.337Z,1013.44
2018-10-09T01:44:36.340Z,1013.50
2018-10-09T01:45:36.322Z,1013.45
2018-10-09T01:46:36.304Z,1013.45
2018-10-09T01:47:36.304Z,1013.46
2018-10-09T01:48:36.283Z,1013.48
2018-10-09T01:49:36.284Z,1013.49
2018-10-09T01:50:36.262Z,1013.50
2018-10-09T01:51:36.286Z,1013.55
2018-10-09T01:52:36.241Z,1013.54
2018-10-09T01:53:36.231Z,1013.57
2018-10-09T01:54:36.259Z,1013.56
2018-10-09T01:55:36.205Z,1013.54
2018-10-09T01:56:36.193Z,1013.48
2018-10-09T01:57:36.208Z,1013.50
2018-10-09T01:58:36.176Z,1013.55
2018-10-09T01:59:36.214Z,1013.52
2018-10-09T02:00:36.148Z,1013.52
2018-10-09T02:01:36.138Z,1013.54
2018-10-09T02:02:36.129Z,1013.50
2018-10-09T02:03:36.121Z,1013.53
2018-10-09T02:04:36.117Z,1013.55
2018-10-09T02:05:36.110Z,1013.54
2018-10-09T02:06:36.085Z,1013.51
2018-10-09T02:07:36.073Z,1013.48
2018-10-09T02:08:36.062Z,1013.46
2018-10-09T02:09:36.063Z,1013.44
2018-10-09T02:10:36.072Z,1013.45
2018-10-09T02:11:36.027Z,1013.40
2018-10-09T02:12:36.016Z,1013.42
2018-10-09T02:13:36.003Z,1013.39
2018-10-09T02:14:36.043Z,1013.43
2018-10-09T02:15:35.981Z,1013.41
2018-10-09T02:16:35.971Z,1013.45
2018-10-09T02:17:35.960Z,1013.43
2018-10-09T02:18:35.950Z,1013.41
2018-10-09T02:19:35.954Z,1013.40
2018-10-09T02:20:35.927Z,1013.35
2018-10-09T02:21:35.915Z,1013.29
2018-10-09T02:22:35.903Z,1013.32
2018-10-09T02:23:35.894Z,1013.29
2018-10-09T02:24:35.899Z,1013.31
2018-10-09T02:25:35.873Z,1013.34
2018-10-09T02:26:35.865Z,1013.34
2018-10-09T02:27:35.853Z,1013.32
2018-10-09T02:28:35.839Z,1013.33
2018-10-09T02:29:35.845Z,1013.32
2018-10-09T02:30:35.816Z,1013.25
2018-10-09T02:31:35.801Z,1013.25
2018-10-09T02:32:35.796Z,1013.20
2018-10-09T02:33:35.876Z,1013.13
2018-10-09T02:34:35.820Z,1013.16
2018-10-09T02:35:35.758Z,1013.15
2018-10-09T02:36:35.747Z,1013.16
2018-10-09T02:37:35.746Z,1013.17
2018-10-09T02:38:35.726Z,1013.19
2018-10-09T02:39:35.742Z,1013.19
2018-10-09T02:40:35.701Z,1013.15
2018-10-09T02:41:35.690Z,1013.18
2018-10-09T02:42:35.712Z,1013.21
2018-10-09T02:43:35.692Z,1013.20
2018-10-09T02:44:35.664Z,1013.23
2018-10-09T02:45:35.659Z,1013.25
2018-10-09T02:46:35.636Z,1013.19
2018-10-09T02:47:35.626Z,1013.20
2018-10-09T02:48:35.641Z,1013.18
2018-10-09T02:49:35.610Z,1013.15
2018-10-09T02:50:35.612Z,1013.18
2018-10-09T02:51:35.580Z,1013.09
2018-10-09T02:52:35.569Z,1013.12
2018-10-09T02:53:35.566Z,1013.07
2018-10-09T02:54:35.545Z,1013.05
2018-10-09T02:55:35.546Z,1013.12
2018-10-09T02:56:35.531Z,1013.11
2018-10-09T02:57:35.529Z,1013.07
2018-10-09T02:58:35.503Z,1013.09
2018-10-09T02:59:35.489Z,1013.08
2018-10-09T03:00:35.540Z,1013.10
2018-10-09T03:01:35.469Z,1013.11
2018-10-09T03:02:35.458Z,1013.12
2018-10-09T03:03:35.447Z,1013.12
2018-10-09T03:04:35.433Z,1013.08
2018-10-09T03:05:42.447Z,1013.09
2018-10-09T03:06:35.413Z,1013.06
2018-10-09T03:07:42.416Z,1013.08
2018-10-09T03:08:42.433Z,1013.03
2018-10-09T03:09:35.379Z,1013.02
2018-10-09T03:10:35.379Z,1013.02
2018-10-09T03:11:35.358Z,1012.96
2018-10-09T03:12:35.345Z,1012.96
2018-10-09T03:13:35.333Z,1012.98
2018-10-09T03:14:35.321Z,1012.99
2018-10-09T03:15:35.337Z,1012.97
2018-10-09T03:16:35.300Z,1013.02
2018-10-09T03:17:35.289Z,1012.95
2018-10-09T03:18:35.282Z,1012.94
2018-10-09T03:19:35.276Z,1012.93
2018-10-09T03:20:35.308Z,1012.94
2018-10-09T03:21:35.276Z,1012.94
2018-10-09T03:22:35.241Z,1012.90
2018-10-09T03:23:35.226Z,1012.87
2018-10-09T03:24:35.210Z,1012.84
2018-10-09T03:25:35.235Z,1012.86
2018-10-09T03:26:35.206Z,1012.81
2018-10-09T03:27:35.176Z,1012.81
2018-10-09T03:28:35.166Z,1012.76
2018-10-09T03:29:35.198Z,1012.78
2018-10-09T03:30:35.151Z,1012.79
2018-10-09T03:31:35.145Z,1012.77
2018-10-09T03:32:35.152Z,1012.80
2018-10-09T03:33:35.112Z,1012.83
2018-10-09T03:34:35.102Z,1012.82
2018-10-09T03:35:35.089Z,1012.81
2018-10-09T03:36:35.088Z,1012.79
2018-10-09T03:37:35.078Z,1012.82
2018-10-09T03:38:35.057Z,1012.81
2018-10-09T03:39:35.051Z,1012.80
2018-10-09T03:40:35.043Z,1012.82
2018-10-09T03:41:35.032Z,1012.81
2018-10-09T03:42:35.027Z,1012.81
2018-10-09T03:43:35.049Z,1012.79
2018-10-09T03:44:34.991Z,1012.77
2018-10-09T03:45:34.978Z,1012.77
2018-10-09T03:46:34.979Z,1012.75
2018-10-09T03:47:34.960Z,1012.73
2018-10-09T03:48:34.942Z,1012.75
2018-10-09T03:49:34.931Z,1012.74
2018-10-09T03:50:34.919Z,1012.69
2018-10-09T03:51:34.961Z,1012.71
2018-10-09T03:52:34.901Z,1012.73
2018-10-09T03:53:34.888Z,1012.73
2018-10-09T03:54:34.942Z,1012.78
2018-10-09T03:55:34.865Z,1012.75
2018-10-09T03:56:34.902Z,1012.77
2018-10-09T03:57:34.845Z,1012.79
2018-10-09T03:58:34.862Z,1012.77
2018-10-09T03:59:34.829Z,1012.79
2018-10-09T04:00:34.808Z,1012.79
2018-10-09T04:01:34.811Z,1012.79
2018-10-09T04:02:34.793Z,1012.82
2018-10-09T04:03:34.773Z,1012.84
2018-10-09T04:04:34.779Z,1012.88
2018-10-09T04:05:34.789Z,1012.87
2018-10-09T04:06:34.768Z,1012.90
2018-10-09T04:07:34.728Z,1012.91
2018-10-09T04:08:34.719Z,1012.85
2018-10-09T04:09:34.783Z,1012.87
2018-10-09T04:10:34.699Z,1012.87
2018-10-09T04:11:34.697Z,1012.85
2018-10-09T04:12:34.749Z,1012.87
2018-10-09T04:13:34.661Z,1012.84
2018-10-09T04:14:34.653Z,1012.79
2018-10-09T04:15:34.639Z,1012.84
2018-10-09T04:16:34.694Z,1012.81
2018-10-09T04:17:34.653Z,1012.80
2018-10-09T04:18:34.611Z,1012.84
2018-10-09T04:19:34.648Z,1012.85
2018-10-09T04:20:34.585Z,1012.82
2018-10-09T04:21:34.573Z,1012.84
2018-10-09T04:22:34.576Z,1012.84
2018-10-09T04:23:34.570Z,1012.86
2018-10-09T04:24:34.541Z,1012.85
2018-10-09T04:25:34.531Z,1012.86
2018-10-09T04:26:34.518Z,1012.86
2018-10-09T04:27:34.524Z,1012.89
2018-10-09T04:28:34.495Z,1012.84
2018-10-09T04:29:34.544Z,1012.85
2018-10-09T04:30:34.472Z,1012.87
2018-10-09T04:31:34.462Z,1012.90
2018-10-09T04:32:34.462Z,1012.92
2018-10-09T04:33:34.441Z,1012.90
2018-10-09T04:34:34.428Z,1012.93
2018-10-09T04:35:34.520Z,1012.90
2018-10-09T04:36:34.405Z,1012.89
2018-10-09T04:37:34.405Z,1012.91
2018-10-09T04:38:34.382Z,1012.92
2018-10-09T04:39:34.371Z,1012.85
2018-10-09T04:40:34.360Z,1012.89
2018-10-09T04:41:34.357Z,1012.90
2018-10-09T04:42:34.350Z,1012.89
2018-10-09T04:43:34.327Z,1012.89
2018-10-09T04:44:34.315Z,1012.93
2018-10-09T04:45:34.366Z,1012.94
2018-10-09T04:46:34.294Z,1012.97
2018-10-09T04:47:34.307Z,1013.00
2018-10-09T04:48:34.271Z,1013.03
2018-10-09T04:49:34.261Z,1013.02
2018-10-09T04:50:34.249Z,1013.03
2018-10-09T04:51:34.238Z,1013.04
2018-10-09T04:52:34.238Z,1013.05
2018-10-09T04:53:34.227Z,1013.07
2018-10-09T04:54:34.204Z,1013.05
2018-10-09T04:55:34.193Z,1013.05
2018-10-09T04:56:34.181Z,1013.09
2018-10-09T04:57:34.184Z,1013.04
2018-10-09T04:58:34.161Z,1013.01
2018-10-09T04:59:34.178Z,1013.06
2018-10-09T05:00:34.186Z,1013.08
2018-10-09T05:01:34.126Z,1013.08
2018-10-09T05:02:34.143Z,1013.10
2018-10-09T05:03:34.105Z,1013.10
2018-10-09T05:04:34.097Z,1013.11
2018-10-09T05:05:34.089Z,1013.14
2018-10-09T05:06:34.071Z,1013.14
2018-10-09T05:07:34.060Z,1013.12
2018-10-09T05:08:34.063Z,1013.11
2018-10-09T05:09:34.036Z,1013.16
2018-10-09T05:10:34.068Z,1013.15
2018-10-09T05:11:34.020Z,1013.15
2018-10-09T05:12:34.013Z,1013.14
2018-10-09T05:13:34.003Z,1013.17
2018-10-09T05:14:33.981Z,1013.13
2018-10-09T05:15:33.971Z,1013.15
2018-10-09T05:16:33.959Z,1013.11
2018-10-09T05:17:33.983Z,1013.10
2018-10-09T05:18:33.955Z,1013.09
2018-10-09T05:19:33.928Z,1013.06
2018-10-09T05:20:33.915Z,1013.04
2018-10-09T05:21:33.903Z,1013.05
2018-10-09T05:22:33.892Z,1013.07
2018-10-09T05:23:33.893Z,1013.10
2018-10-09T05:24:33.879Z,1013.12
2018-10-09T05:25:33.858Z,1013.14
2018-10-09T05:26:33.849Z,1013.10
2018-10-09T05:27:33.840Z,1013.09
2018-10-09T05:28:33.836Z,1013.10
2018-10-09T05:29:33.814Z,1013.13
2018-10-09T05:30:33.817Z,1013.16
2018-10-09T05:31:33.845Z,1013.17
2018-10-09T05:32:33.781Z,1013.20
2018-10-09T05:33:33.785Z,1013.21
2018-10-09T05:34:33.783Z,1013.22
2018-10-09T05:35:33.747Z,1013.21
2018-10-09T05:36:33.751Z,1013.24
2018-10-09T05:37:33.815Z,1013.24
2018-10-09T05:38:33.725Z,1013.25
2018-10-09T05:39:33.702Z,1013.27
2018-10-09T05:40:33.691Z,1013.19
2018-10-09T05:41:33.680Z,1013.25
2018-10-09T05:42:33.675Z,1013.25
2018-10-09T05:43:33.671Z,1013.29
2018-10-09T05:44:33.750Z,1013.27
2018-10-09T05:45:33.636Z,1013.27
2018-10-09T05:46:33.625Z,1013.27
2018-10-09T05:47:33.620Z,1013.32
2018-10-09T05:48:33.625Z,1013.26
2018-10-09T05:49:33.593Z,1013.31
2018-10-09T05:50:33.580Z,1013.31
2018-10-09T05:51:33.573Z,1013.28
2018-10-09T05:52:33.604Z,1013.30
2018-10-09T05:53:33.561Z,1013.26
2018-10-09T05:54:33.549Z,1013.30
2018-10-09T05:55:33.529Z,1013.33
2018-10-09T05:56:33.514Z,1013.32
2018-10-09T05:57:33.504Z,1013.36
2018-10-09T05:58:33.503Z,1013.39
2018-10-09T05:59:33.479Z,1013.34
2018-10-09T06:00:33.478Z,1013.38
2018-10-09T06:01:33.457Z,1013.39
2018-10-09T06:02:33.445Z,1013.39
2018-10-09T06:03:33.458Z,1013.35
2018-10-09T06:04:33.427Z,1013.36
2018-10-09T06:05:33.412Z,1013.29
2018-10-09T06:06:33.412Z,1013.29
2018-10-09T06:07:33.389Z,1013.29
2018-10-09T06:08:33.379Z,1013.35
2018-10-09T06:09:33.380Z,1013.32
2018-10-09T06:10:33.355Z,1013.41
2018-10-09T06:11:33.352Z,1013.38
2018-10-09T06:12:33.338Z,1013.43
2018-10-09T06:13:33.335Z,1013.45
2018-10-09T06:14:33.325Z,1013.42
2018-10-09T06:15:33.335Z,1013.48
2018-10-09T06:16:33.290Z,1013.46
2018-10-09T06:17:33.278Z,1013.48
2018-10-09T06:18:33.268Z,1013.49
2018-10-09T06:19:33.279Z,1013.50
2018-10-09T06:20:33.246Z,1013.52
2018-10-09T06:21:33.233Z,1013.49
2018-10-09T06:22:33.231Z,1013.51
2018-10-09T06:23:33.215Z,1013.54
2018-10-09T06:24:33.217Z,1013.53
2018-10-09T06:25:33.193Z,1013.60
2018-10-09T06:26:33.177Z,1013.58
2018-10-09T06:27:33.167Z,1013.57
2018-10-09T06:28:33.266Z,1013.59
2018-10-09T06:29:33.159Z,1013.60
2018-10-09T06:30:33.136Z,1013.61
2018-10-09T06:31:33.146Z,1013.60
2018-10-09T06:32:33.110Z,1013.66
2018-10-09T06:33:33.099Z,1013.65
2018-10-09T06:34:33.101Z,1013.69
2018-10-09T06:35:33.079Z,1013.68
2018-10-09T06:36:33.066Z,1013.71
2018-10-09T06:37:33.074Z,1013.69
2018-10-09T06:38:33.048Z,1013.60
2018-10-09T06:39:33.045Z,1013.62
2018-10-09T06:40:33.042Z,1013.58
2018-10-09T06:41:33.011Z,1013.57
2018-10-09T06:42:33.010Z,1013.58
2018-10-09T06:43:32.997Z,1013.58
2018-10-09T06:44:32.990Z,1013.52
2018-10-09T06:45:32.967Z,1013.57
2018-10-09T06:46:32.954Z,1013.51
2018-10-09T06:47:33.003Z,1013.55
2018-10-09T06:48:32.934Z,1013.55
2018-10-09T06:49:32.948Z,1013.53
2018-10-09T06:50:32.910Z,1013.59
2018-10-09T06:51:32.898Z,1013.59
2018-10-09T06:52:32.889Z,1013.57
2018-10-09T06:53:32.917Z,1013.60
2018-10-09T06:54:32.985Z,1013.58
2018-10-09T06:55:32.863Z,1013.61
2018-10-09T06:56:32.847Z,1013.58
2018-10-09T06:57:32.836Z,1013.55
2018-10-09T06:58:32.820Z,1013.56
2018-10-09T06:59:32.812Z,1013.54
2018-10-09T07:00:32.809Z,1013.57
2018-10-09T07:01:32.792Z,1013.58
2018-10-09T07:02:32.792Z,1013.65
2018-10-09T07:03:32.766Z,1013.63
2018-10-09T07:04:32.756Z,1013.66
2018-10-09T07:05:32.755Z,1013.69
2018-10-09T07:06:32.734Z,1013.70
2018-10-09T07:07:32.721Z,1013.71
2018-10-09T07:08:32.715Z,1013.77
2018-10-09T07:09:32.699Z,1013.79
2018-10-09T07:10:32.701Z,1013.78
2018-10-09T07:11:32.804Z,1013.80
2018-10-09T07:12:32.667Z,1013.83
2018-10-09T07:13:39.667Z,1013.85
2018-10-09T07:14:39.654Z,1013.86
2018-10-09T07:15:39.659Z,1013.90
2018-10-09T07:16:40.154Z,1013.84
2018-10-09T07:17:39.621Z,1013.89
2018-10-09T07:18:32.598Z,1013.95
2018-10-09T07:19:32.588Z,1013.96
2018-10-09T07:20:32.589Z,1013.97
2018-10-09T07:21:32.565Z,1014.01
2018-10-09T07:22:32.554Z,1014.08
2018-10-09T07:23:32.541Z,1014.05
2018-10-09T07:24:32.531Z,1014.05
2018-10-09T07:25:32.530Z,1014.01
2018-10-09T07:26:32.509Z,1014.03
2018-10-09T07:27:32.496Z,1013.98
2018-10-09T07:28:32.507Z,1013.98
2018-10-09T07:29:32.474Z,1014.00
2018-10-09T07:30:32.475Z,1014.01
2018-10-09T07:31:32.455Z,1013.97
2018-10-09T07:32:32.457Z,1014.04
2018-10-09T07:33:32.431Z,1014.03
2018-10-09T07:34:32.419Z,1014.07
2018-10-09T07:35:32.422Z,1014.11
2018-10-09T07:36:32.396Z,1014.13
2018-10-09T07:37:32.451Z,1014.16
2018-10-09T07:38:32.375Z,1014.19
2018-10-09T07:39:32.363Z,1014.21
2018-10-09T07:40:32.368Z,1014.20
2018-10-09T07:41:32.341Z,1014.24
2018-10-09T07:42:32.332Z,1014.26
2018-10-09T07:43:32.319Z,1014.26
2018-10-09T07:44:32.315Z,1014.22
2018-10-09T07:45:32.318Z,1014.20
2018-10-09T07:46:32.289Z,1014.22
2018-10-09T07:47:32.273Z,1014.22
2018-10-09T07:48:32.263Z,1014.21
2018-10-09T07:49:32.255Z,1014.19
2018-10-09T07:50:32.261Z,1014.20
2018-10-09T07:51:32.231Z,1014.14
2018-10-09T07:52:32.226Z,1014.18
2018-10-09T07:53:32.207Z,1014.22
2018-10-09T07:54:32.196Z,1014.18
2018-10-09T07:55:32.198Z,1014.20
2018-10-09T07:56:32.201Z,1014.19
2018-10-09T07:57:32.168Z,1014.20
2018-10-09T07:58:32.157Z,1014.23
2018-10-09T07:59:32.140Z,1014.19
2018-10-09T08:00:32.149Z,1014.21
2018-10-09T08:01:32.123Z,1014.18
2018-10-09T08:02:32.110Z,1014.21
2018-10-09T08:03:32.095Z,1014.26
2018-10-09T08:04:32.085Z,1014.26
2018-10-09T08:05:32.093Z,1014.26
2018-10-09T08:06:32.104Z,1014.29
2018-10-09T08:07:32.050Z,1014.29
2018-10-09T08:08:32.047Z,1014.31
2018-10-09T08:09:32.030Z,1014.33
2018-10-09T08:10:32.090Z,1014.31
2018-10-09T08:11:32.007Z,1014.32
2018-10-09T08:12:31.995Z,1014.35
2018-10-09T08:13:31.990Z,1014.35
2018-10-09T08:14:31.978Z,1014.33
2018-10-09T08:15:31.964Z,1014.36
2018-10-09T08:16:31.962Z,1014.33
2018-10-09T08:17:31.942Z,1014.34
2018-10-09T08:18:31.928Z,1014.34
2018-10-09T08:19:31.920Z,1014.32
2018-10-09T08:20:31.914Z,1014.32
2018-10-09T08:21:31.905Z,1014.31
2018-10-09T08:22:31.915Z,1014.29
2018-10-09T08:23:31.874Z,1014.34
2018-10-09T08:24:31.860Z,1014.31
2018-10-09T08:25:31.849Z,1014.35
2018-10-09T08:26:31.860Z,1014.35
2018-10-09T08:27:31.842Z,1014.34
2018-10-09T08:28:31.818Z,1014.30
2018-10-09T08:29:31.804Z,1014.30
2018-10-09T08:30:31.794Z,1014.31
2018-10-09T08:31:31.794Z,1014.33
2018-10-09T08:32:31.791Z,1014.32
2018-10-09T08:33:31.766Z,1014.34
2018-10-09T08:34:31.780Z,1014.37
2018-10-09T08:35:31.738Z,1014.37
2018-10-09T08:36:31.739Z,1014.35
2018-10-09T08:37:31.715Z,1014.35
2018-10-09T08:38:31.717Z,1014.33
2018-10-09T08:39:31.694Z,1014.34
2018-10-09T08:40:31.739Z,1014.30
2018-10-09T08:41:31.682Z,1014.29
2018-10-09T08:42:31.659Z,1014.24
2018-10-09T08:43:31.653Z,1014.23
2018-10-09T08:44:31.644Z,1014.29
2018-10-09T08:45:31.626Z,1014.24
2018-10-09T08:46:31.631Z,1014.25
2018-10-09T08:47:31.603Z,1014.23
2018-10-09T08:48:31.627Z,1014.26
2018-10-09T08:49:31.593Z,1014.25
2018-10-09T08:50:31.569Z,1014.29
2018-10-09T08:51:31.571Z,1014.28
2018-10-09T08:52:31.549Z,1014.27
2018-10-09T08:53:31.536Z,1014.29
2018-10-09T08:54:31.526Z,1014.26
2018-10-09T08:55:31.526Z,1014.34
2018-10-09T08:56:31.514Z,1014.36
2018-10-09T08:57:31.593Z,1014.32
2018-10-09T08:58:31.481Z,1014.34
2018-10-09T08:59:31.472Z,1014.35
2018-10-09T09:00:32.248Z,1014.35
2018-10-09T09:01:31.459Z,1014.38
2018-10-09T09:02:31.436Z,1014.32
2018-10-09T09:03:31.433Z,1014.31
2018-10-09T09:04:31.427Z,1014.26
2018-10-09T09:05:31.403Z,1014.30
2018-10-09T09:06:31.403Z,1014.29
2018-10-09T09:07:31.405Z,1014.27
2018-10-09T09:08:31.369Z,1014.28
2018-10-09T09:09:31.415Z,1014.29
2018-10-09T09:10:31.346Z,1014.31
2018-10-09T09:11:31.348Z,1014.32
2018-10-09T09:12:31.333Z,1014.31
2018-10-09T09:13:31.313Z,1014.29
2018-10-09T09:14:31.313Z,1014.26
2018-10-09T09:15:31.432Z,1014.27
2018-10-09T09:16:31.292Z,1014.27
2018-10-09T09:17:31.269Z,1014.29
2018-10-09T09:18:31.257Z,1014.30
2018-10-09T09:19:31.259Z,1014.30
2018-10-09T09:20:31.263Z,1014.34
2018-10-09T09:21:31.238Z,1014.32
2018-10-09T09:22:31.217Z,1014.31
2018-10-09T09:23:31.203Z,1014.33
2018-10-09T09:24:31.206Z,1014.31
2018-10-09T09:25:31.188Z,1014.28
2018-10-09T09:26:31.269Z,1014.27
2018-10-09T09:27:31.306Z,1014.26
2018-10-09T09:28:31.148Z,1014.27
2018-10-09T09:29:31.135Z,1014.29
2018-10-09T09:30:31.123Z,1014.36
2018-10-09T09:31:31.137Z,1014.38
2018-10-09T09:32:31.101Z,1014.39
2018-10-09T09:33:31.091Z,1014.40
2018-10-09T09:34:31.078Z,1014.46
2018-10-09T09:35:31.068Z,1014.45
2018-10-09T09:36:31.068Z,1014.42
2018-10-09T09:37:31.062Z,1014.45
2018-10-09T09:38:31.034Z,1014.44
2018-10-09T09:39:31.023Z,1014.48
2018-10-09T09:40:31.013Z,1014.46
2018-10-09T09:41:31.012Z,1014.43
2018-10-09T09:42:30.988Z,1014.43
2018-10-09T09:43:30.996Z,1014.45
2018-10-09T09:44:30.969Z,1014.43
2018-10-09T09:45:30.956Z,1014.47
2018-10-09T09:46:30.973Z,1014.45
2018-10-09T09:47:30.933Z,1014.43
2018-10-09T09:48:30.923Z,1014.44
2018-10-09T09:49:30.928Z,1014.36
2018-10-09T09:50:30.917Z,1014.40
2018-10-09T09:51:30.892Z,1014.37
2018-10-09T09:52:30.889Z,1014.32
2018-10-09T09:53:30.869Z,1014.28
2018-10-09T09:54:30.857Z,1014.34
2018-10-09T09:55:30.855Z,1014.31
2018-10-09T09:56:30.833Z,1014.31
2018-10-09T09:57:30.834Z,1014.32
2018-10-09T09:58:30.923Z,1014.31
2018-10-09T09:59:30.800Z,1014.32
2018-10-09T10:00:30.789Z,1014.30
2018-10-09T10:01:30.798Z,1014.29
2018-10-09T10:02:30.776Z,1014.27
2018-10-09T10:03:30.777Z,1014.28
2018-10-09T10:04:30.745Z,1014.30
2018-10-09T10:05:30.734Z,1014.28
2018-10-09T10:06:30.724Z,1014.26
2018-10-09T10:07:30.732Z,1014.30
2018-10-09T10:08:30.699Z,1014.29
2018-10-09T10:09:30.728Z,1014.29
2018-10-09T10:10:30.676Z,1014.29
2018-10-09T10:11:30.667Z,1014.31
2018-10-09T10:12:30.694Z,1014.24
2018-10-09T10:13:30.646Z,1014.25
2018-10-09T10:14:30.634Z,1014.25
2018-10-09T10:15:30.633Z,1014.21
2018-10-09T10:16:30.626Z,1014.24
2018-10-09T10:17:30.622Z,1014.24
2018-10-09T10:18:30.598Z,1014.25
2018-10-09T10:19:30.580Z,1014.21
2018-10-09T10:20:30.646Z,1014.21
2018-10-09T10:21:30.623Z,1014.19
2018-10-09T10:22:30.561Z,1014.22
2018-10-09T10:23:30.581Z,1014.23
2018-10-09T10:24:30.525Z,1014.21
2018-10-09T10:25:30.514Z,1014.20
2018-10-09T10:26:30.537Z,1014.17
2018-10-09T10:27:30.509Z,1014.13
2018-10-09T10:28:30.576Z,1014.14
2018-10-09T10:29:30.467Z,1014.13
2018-10-09T10:30:30.466Z,1014.13
2018-10-09T10:31:30.485Z,1014.12
2018-10-09T10:32:30.444Z,1014.10
2018-10-09T10:33:30.426Z,1014.10
2018-10-09T10:34:30.422Z,1014.12
2018-10-09T10:35:30.419Z,1014.14
2018-10-09T10:36:30.416Z,1014.12
2018-10-09T10:37:30.387Z,1014.10
2018-10-09T10:38:30.363Z,1014.16
2018-10-09T10:39:30.369Z,1014.10
2018-10-09T10:40:30.345Z,1014.10
2018-10-09T10:41:30.331Z,1014.07
2018-10-09T10:42:30.378Z,1014.04
2018-10-09T10:43:30.310Z,1014.00
2018-10-09T10:44:30.298Z,1014.02
2018-10-09T10:45:30.306Z,1014.02
2018-10-09T10:46:30.274Z,1014.03
2018-10-09T10:47:30.280Z,1014.01
2018-10-09T10:48:30.277Z,1014.00
2018-10-09T10:49:30.352Z,1013.97
2018-10-09T10:50:30.230Z,1013.99
2018-10-09T10:51:30.223Z,1013.99
2018-10-09T10:52:30.219Z,1013.97
2018-10-09T10:53:30.215Z,1013.95
2018-10-09T10:54:30.185Z,1013.92
2018-10-09T10:55:30.176Z,1013.97
2018-10-09T10:56:30.165Z,1013.97
2018-10-09T10:57:30.166Z,1013.95
2018-10-09T10:58:30.141Z,1013.97
2018-10-09T10:59:30.141Z,1013.91
2018-10-09T11:00:30.118Z,1013.90
2018-10-09T11:01:30.231Z,1013.88
2018-10-09T11:02:30.107Z,1013.87
2018-10-09T11:03:30.085Z,1013.86
2018-10-09T11:04:30.075Z,1013.83
2018-10-09T11:05:30.084Z,1013.81
2018-10-09T11:06:30.052Z,1013.80
2018-10-09T11:07:30.052Z,1013.83
2018-10-09T11:08:30.116Z,1013.84
2018-10-09T11:09:30.019Z,1013.80
2018-10-09T11:10:30.028Z,1013.84
2018-10-09T11:11:30.011Z,1013.85
2018-10-09T11:12:29.996Z,1013.83
2018-10-09T11:13:29.972Z,1013.84
2018-10-09T11:14:29.991Z,1013.82
2018-10-09T11:15:29.949Z,1013.82
2018-10-09T11:16:37.467Z,1013.81
2018-10-09T11:17:36.952Z,1013.79
2018-10-09T11:18:29.917Z,1013.81
2018-10-09T11:19:37.432Z,1013.81
2018-10-09T11:20:29.896Z,1013.81
2018-10-09T11:21:29.893Z,1013.81
2018-10-09T11:22:29.895Z,1013.79
2018-10-09T11:23:29.861Z,1013.81
2018-10-09T11:24:29.852Z,1013.78
2018-10-09T11:25:29.840Z,1013.78
2018-10-09T11:26:29.840Z,1013.79
2018-10-09T11:27:29.815Z,1013.80
2018-10-09T11:28:29.818Z,1013.74
2018-10-09T11:29:29.794Z,1013.72
2018-10-09T11:30:29.804Z,1013.71
2018-10-09T11:31:29.771Z,1013.68
2018-10-09T11:32:29.792Z,1013.70
2018-10-09T11:33:29.775Z,1013.67
2018-10-09T11:34:29.738Z,1013.69
2018-10-09T11:35:29.726Z,1013.65
2018-10-09T11:36:29.731Z,1013.69
2018-10-09T11:37:29.704Z,1013.70
2018-10-09T11:38:29.717Z,1013.64
2018-10-09T11:39:29.683Z,1013.66
2018-10-09T11:40:29.669Z,1013.66
2018-10-09T11:41:29.658Z,1013.63
2018-10-09T11:42:29.648Z,1013.64
2018-10-09T11:43:29.653Z,1013.64
2018-10-09T11:44:29.636Z,1013.59
2018-10-09T11:45:29.613Z,1013.56
2018-10-09T11:46:29.603Z,1013.58
2018-10-09T11:47:29.590Z,1013.57
2018-10-09T11:48:29.595Z,1013.59
2018-10-09T11:49:29.571Z,1013.58
2018-10-09T11:50:29.567Z,1013.58
2018-10-09T11:51:29.546Z,1013.59
2018-10-09T11:52:29.537Z,1013.58
2018-10-09T11:53:29.537Z,1013.56
2018-10-09T11:54:29.514Z,1013.53
2018-10-09T11:55:29.501Z,1013.53
2018-10-09T11:56:29.501Z,1013.49
2018-10-09T11:57:29.479Z,1013.49
2018-10-09T11:58:29.534Z,1013.51
2018-10-09T11:59:29.456Z,1013.51
2018-10-09T12:00:29.446Z,1013.41
2018-10-09T12:01:29.434Z,1013.42
2018-10-09T12:02:29.437Z,1013.43
2018-10-09T12:03:29.423Z,1013.36
2018-10-09T12:04:29.400Z,1013.38
2018-10-09T12:05:29.481Z,1013.31